Time;durP1;ratioP1;P1;durP2;ratioP2;P2;SDS_P1;SDS_P2;PMS_P1;PMS_P2;Temp;Humidity;BMP_temperature;BMP_pressure;BME280_temperature;BME280_humidity;BME280_pressure;Samples;Min_cycle;Max_cycle;Signal;HPM_P1;HPM_P2
2023/05/25 00:01:33;;;;;;;8.57;5.07;;;7.80;99.90;;;;;;5113179;27;20393;-87
2023/05/25 00:04:01;;;;;;;9.40;5.40;;;7.80;99.90;;;;;;5130523;27;20821;-87
2023/05/25 00:06:28;;;;;;;9.27;5.10;;;7.80;99.90;;;;;;5112869;27;20477;-87
2023/05/25 00:08:56;;;;;;;11.50;5.90;;;7.80;99.90;;;;;;5130007;27;20385;-87
2023/05/25 00:11:22;;;;;;;9.45;5.43;;;7.70;99.90;;;;;;5130200;27;20397;-87
2023/05/25 00:13:49;;;;;;;8.88;5.10;;;7.70;99.90;;;;;;5113368;27;20397;-87
2023/05/25 00:16:14;;;;;;;10.83;5.53;;;7.70;99.90;;;;;;5112643;27;20433;-87
2023/05/25 00:18:40;;;;;;;10.57;6.10;;;7.60;99.90;;;;;;5113196;27;20428;-87
2023/05/25 00:21:06;;;;;;;10.75;5.45;;;7.60;99.90;;;;;;5112885;27;20422;-87
2023/05/25 00:23:32;;;;;;;10.27;5.97;;;7.50;99.90;;;;;;5112535;27;20412;-86
2023/05/25 00:25:58;;;;;;;8.45;5.15;;;7.40;99.90;;;;;;5129809;27;20413;-87
2023/05/25 00:28:24;;;;;;;8.35;5.03;;;7.40;99.90;;;;;;5148193;27;20389;-87
2023/05/25 00:30:50;;;;;;;7.95;4.57;;;7.30;99.90;;;;;;5112264;27;20880;-86
2023/05/25 00:33:16;;;;;;;7.20;4.20;;;7.30;99.90;;;;;;5129923;27;20397;-87
2023/05/25 00:35:42;;;;;;;6.50;2.40;;;7.20;99.90;;;;;;5112647;27;20898;-87
2023/05/25 00:38:16;;;;;;;8.70;4.70;;;7.20;99.90;;;;;;5129480;27;20401;-86
2023/05/25 00:40:41;;;;;;;10.60;5.40;;;7.20;99.90;;;;;;5128846;27;20698;-86
2023/05/25 00:43:08;;;;;;;7.77;4.67;;;7.30;99.90;;;;;;5112353;27;20397;-87
2023/05/25 00:45:34;;;;;;;12.88;6.57;;;7.20;99.90;;;;;;5111879;27;20914;-86
2023/05/25 00:48:00;;;;;;;9.60;5.35;;;7.20;99.90;;;;;;5112259;27;20397;-87
2023/05/25 00:50:39;;;;;;;9.60;4.97;;;7.10;99.90;;;;;;5129211;27;20439;-86
2023/05/25 00:53:07;;;;;;;12.57;6.20;;;7.10;99.90;;;;;;5111532;27;20405;-86
2023/05/25 00:55:40;;;;;;;13.30;7.32;;;7.10;99.90;;;;;;5129189;27;20525;-86
2023/05/25 00:58:07;;;;;;;10.63;6.90;;;7.00;99.90;;;;;;5111945;27;20409;-86
2023/05/25 01:00:37;;;;;;;13.75;6.57;;;7.30;99.90;;;;;;5147968;27;20458;-87
2023/05/25 01:03:10;;;;;;;13.55;6.72;;;7.10;99.90;;;;;;5128718;27;20408;-86
2023/05/25 01:05:37;;;;;;;13.18;7.45;;;7.10;99.90;;;;;;5128847;27;20428;-87
2023/05/25 01:08:06;;;;;;;17.80;9.32;;;7.30;99.90;;;;;;5111655;27;20400;-87
2023/05/25 01:10:34;;;;;;;15.93;8.30;;;7.20;99.90;;;;;;5128876;27;20899;-86
2023/05/25 01:13:01;;;;;;;10.45;6.30;;;7.20;99.90;;;;;;5129167;27;20420;-87
2023/05/25 01:15:30;;;;;;;14.25;8.20;;;7.10;99.90;;;;;;5111744;27;20389;-86
2023/05/25 01:17:58;;;;;;;13.57;6.90;;;7.10;99.90;;;;;;5128821;27;20404;-86
2023/05/25 01:20:28;;;;;;;9.25;5.80;;;7.00;99.90;;;;;;5128719;27;20400;-86
2023/05/25 01:22:56;;;;;;;11.90;6.60;;;7.10;99.90;;;;;;5128922;27;20430;-86
2023/05/25 01:25:26;;;;;;;13.88;8.52;;;7.20;99.90;;;;;;5111374;27;20467;-85
2023/05/25 01:28:22;;;;;;;14.17;8.47;;;7.20;99.90;;;;;;5128739;27;20902;-86
2023/05/25 01:30:49;;;;;;;15.75;10.20;;;7.20;99.90;;;;;;5111849;27;20468;-87
2023/05/25 01:33:17;;;;;;;16.08;9.38;;;7.20;99.90;;;;;;5128494;27;20461;-87
2023/05/25 01:35:44;;;;;;;17.33;10.30;;;7.20;99.90;;;;;;5111411;27;20903;-86
2023/05/25 01:38:10;;;;;;;18.83;9.38;;;7.20;99.90;;;;;;5111532;27;20729;-87
2023/05/25 01:40:35;;;;;;;13.65;8.32;;;7.20;99.90;;;;;;5128908;27;20400;-86
2023/05/25 01:43:01;;;;;;;15.40;8.10;;;7.10;99.90;;;;;;5111257;27;20480;-87
2023/05/25 01:45:27;;;;;;;12.77;7.28;;;7.10;99.90;;;;;;5128599;27;20504;-87
2023/05/25 01:48:20;;;;;;;14.57;8.80;;;7.00;99.90;;;;;;5111274;27;20401;-86
2023/05/25 01:50:54;;;;;;;15.07;9.17;;;7.10;99.90;;;;;;5128495;27;20910;-86
2023/05/25 01:53:29;;;;;;;17.58;10.98;;;7.10;99.90;;;;;;5128352;27;20409;-86
2023/05/25 01:55:59;;;;;;;12.33;7.47;;;7.10;99.90;;;;;;5128667;27;20907;-86
2023/05/25 01:58:26;;;;;;;11.57;7.95;;;7.10;99.90;;;;;;5128674;27;20844;-86
2023/05/25 02:00:52;;;;;;;10.40;7.60;;;7.10;99.90;;;;;;5128119;27;20434;-86
2023/05/25 02:03:19;;;;;;;11.63;7.53;;;7.10;99.90;;;;;;5110922;27;20400;-86
2023/05/25 02:05:45;;;;;;;18.23;10.20;;;7.30;99.90;;;;;;5114806;27;20417;-87
2023/05/25 02:08:11;;;;;;;15.68;9.63;;;7.30;99.90;;;;;;5115172;27;20404;-86
2023/05/25 02:10:37;;;;;;;16.08;10.80;;;7.40;99.90;;;;;;5114951;27;20397;-86
2023/05/25 02:13:02;;;;;;;19.93;13.17;;;7.90;99.90;;;;;;5132575;27;20770;-87
2023/05/25 02:15:32;;;;;;;15.88;11.18;;;7.50;99.90;;;;;;5114962;27;20397;-86
2023/05/25 02:17:59;;;;;;;20.42;12.95;;;7.60;99.90;;;;;;5114979;27;20401;-86
2023/05/25 02:20:26;;;;;;;25.10;16.23;;;7.60;99.90;;;;;;5114759;27;20389;-87
2023/05/25 02:22:52;;;;;;;26.17;13.93;;;7.80;99.90;;;;;;5115092;27;20458;-86
2023/05/25 02:25:18;;;;;;;28.45;12.65;;;7.70;99.90;;;;;;5131453;27;20553;-86
2023/05/25 02:27:44;;;;;;;32.20;13.00;;;7.70;99.90;;;;;;5131983;27;20408;-86
2023/05/25 02:30:10;;;;;;;22.40;11.57;;;7.60;99.90;;;;;;5131977;27;20404;-86
2023/05/25 02:32:36;;;;;;;24.20;13.45;;;7.50;99.90;;;;;;5132120;27;20400;-86
2023/05/25 02:35:02;;;;;;;126.90;18.85;;;7.50;99.90;;;;;;5131686;27;20428;-86
2023/05/25 02:37:27;;;;;;;28.48;14.35;;;7.50;99.90;;;;;;5131767;27;20408;-86
2023/05/25 02:39:53;;;;;;;34.50;11.63;;;7.40;99.90;;;;;;5132062;27;20416;-86
2023/05/25 02:42:18;;;;;;;124.72;15.05;;;7.40;99.90;;;;;;5114316;27;20401;-87
2023/05/25 02:44:47;;;;;;;45.30;11.90;;;7.40;99.90;;;;;;5114459;27;20461;-86
2023/05/25 02:47:20;;;;;;;165.18;15.10;;;7.30;99.90;;;;;;5131819;27;20392;-86
2023/05/25 02:49:45;;;;;;;56.17;11.07;;;7.20;99.90;;;;;;5131479;27;20533;-87
2023/05/25 02:52:12;;;;;;;21.10;9.63;;;7.20;99.90;;;;;;5131406;27;20784;-86
2023/05/25 02:54:38;;;;;;;26.35;12.93;;;7.10;99.90;;;;;;5131512;27;20785;-86
2023/05/25 02:57:04;;;;;;;36.47;9.88;;;7.20;99.90;;;;;;5114598;27;20453;-86
2023/05/25 02:59:29;;;;;;;13.23;9.77;;;7.20;99.90;;;;;;5131475;27;20402;-87
2023/05/25 03:01:55;;;;;;;10.60;8.48;;;7.30;99.90;;;;;;5131345;27;20400;-86
2023/05/25 03:04:21;;;;;;;10.93;9.10;;;7.30;99.90;;;;;;5150077;27;20417;-86
2023/05/25 03:06:47;;;;;;;11.97;9.97;;;7.30;99.90;;;;;;5131119;27;20508;-86
2023/05/25 03:09:12;;;;;;;11.70;8.60;;;7.30;99.90;;;;;;5130944;27;20416;-86
2023/05/25 03:11:38;;;;;;;13.27;10.43;;;7.30;99.90;;;;;;5114448;27;20744;-86
2023/05/25 03:14:04;;;;;;;11.70;9.40;;;7.30;99.90;;;;;;5114315;27;20828;-87
2023/05/25 03:16:30;;;;;;;17.10;11.30;;;7.20;99.90;;;;;;5113486;27;20396;-86
2023/05/25 03:18:56;;;;;;;33.83;12.07;;;7.10;99.90;;;;;;5131307;27;20412;-87
2023/05/25 03:21:22;;;;;;;22.33;11.63;;;7.10;99.90;;;;;;5130918;27;20405;-86
2023/05/25 03:23:48;;;;;;;17.07;10.20;;;7.00;99.90;;;;;;5113406;27;20835;-86
2023/05/25 03:26:16;;;;;;;13.63;9.30;;;6.90;99.90;;;;;;5113992;27;20501;-86
2023/05/25 03:28:42;;;;;;;27.70;14.23;;;6.90;99.90;;;;;;5130783;27;20401;-87
2023/05/25 03:31:07;;;;;;;17.70;12.02;;;6.90;99.90;;;;;;5130725;27;20401;-85
2023/05/25 03:33:33;;;;;;;14.38;11.23;;;7.10;99.90;;;;;;5131232;27;20437;-86
2023/05/25 03:35:59;;;;;;;99.30;11.77;;;7.00;99.90;;;;;;5113452;27;20401;-86
2023/05/25 03:38:24;;;;;;;37.50;11.20;;;6.90;99.90;;;;;;5130773;27;20763;-86
2023/05/25 03:40:50;;;;;;;42.75;12.27;;;6.80;99.90;;;;;;5130570;27;20484;-86
2023/05/25 03:43:16;;;;;;;16.38;10.55;;;6.80;99.90;;;;;;5130915;27;20882;-87
2023/05/25 03:45:41;;;;;;;17.00;10.57;;;6.80;99.90;;;;;;5130727;27;20470;-87
2023/05/25 03:48:07;;;;;;;29.52;12.20;;;6.80;99.90;;;;;;5130493;27;20409;-86
2023/05/25 03:50:33;;;;;;;24.25;13.57;;;6.90;99.90;;;;;;5113710;27;20385;-85
2023/05/25 03:52:59;;;;;;;34.78;13.35;;;6.90;99.90;;;;;;5113093;27;20717;-87
2023/05/25 03:55:24;;;;;;;50.93;12.20;;;6.90;99.90;;;;;;5113322;27;20442;-87
2023/05/25 03:57:50;;;;;;;14.17;10.37;;;6.80;99.90;;;;;;5149135;27;20491;-86
2023/05/25 04:00:16;;;;;;;13.57;10.30;;;6.80;99.90;;;;;;5113010;27;20393;-85
2023/05/25 04:02:42;;;;;;;12.98;10.48;;;6.80;99.90;;;;;;5129991;27;20400;-86
2023/05/25 04:05:08;;;;;;;13.17;10.57;;;6.80;99.90;;;;;;5130457;27;20968;-85
2023/05/25 04:07:35;;;;;;;14.50;11.52;;;6.90;99.90;;;;;;5130256;27;20626;-87
2023/05/25 04:10:01;;;;;;;16.35;12.90;;;6.90;99.90;;;;;;5130079;27;20632;-86
2023/05/25 04:12:27;;;;;;;16.67;12.45;;;6.90;99.90;;;;;;5113021;27;20393;-86
2023/05/25 04:14:53;;;;;;;19.00;14.35;;;7.00;99.90;;;;;;5112820;27;20534;-87
2023/05/25 04:17:21;;;;;;;25.77;15.53;;;7.10;99.90;;;;;;5112796;27;20401;-86
2023/05/25 04:19:46;;;;;;;27.08;17.02;;;7.20;99.90;;;;;;5129974;27;20437;-87
2023/05/25 04:22:12;;;;;;;30.90;17.87;;;7.30;99.90;;;;;;5112653;27;20485;-86
2023/05/25 04:24:37;;;;;;;25.52;16.67;;;7.40;99.90;;;;;;5112262;27;20428;-86
2023/05/25 04:27:04;;;;;;;25.23;17.70;;;7.50;99.90;;;;;;5129388;27;20412;-87
2023/05/25 04:29:30;;;;;;;28.23;17.73;;;7.60;99.90;;;;;;5129006;27;20922;-86
2023/05/25 04:31:56;;;;;;;29.95;19.75;;;7.80;99.90;;;;;;5129858;27;20389;-87
2023/05/25 04:34:22;;;;;;;34.00;21.92;;;7.90;99.90;;;;;;5112659;27;20402;-86
2023/05/25 04:36:48;;;;;;;39.15;22.13;;;8.10;99.90;;;;;;5129616;27;20440;-86
2023/05/25 04:39:14;;;;;;;33.60;22.52;;;8.30;99.90;;;;;;5128932;27;20401;-86
2023/05/25 04:41:41;;;;;;;39.90;23.48;;;8.70;99.90;;;;;;5129341;27;20448;-87
2023/05/25 04:44:07;;;;;;;53.47;30.40;;;8.50;99.90;;;;;;5148178;27;20385;-86
2023/05/25 04:46:36;;;;;;;38.57;23.50;;;8.70;99.90;;;;;;5128982;27;20442;-86
2023/05/25 04:49:03;;;;;;;53.65;32.17;;;8.90;99.90;;;;;;5129593;27;20844;-86
2023/05/25 04:51:28;;;;;;;48.78;28.55;;;9.20;99.90;;;;;;5128921;27;20436;-86
2023/05/25 04:53:54;;;;;;;46.88;26.92;;;9.40;99.90;;;;;;5128891;27;20433;-86
2023/05/25 04:56:24;;;;;;;41.30;26.40;;;9.60;99.90;;;;;;5112073;27;20416;-86
2023/05/25 04:58:51;;;;;;;43.78;26.15;;;9.80;99.90;;;;;;5147946;27;20755;-87
2023/05/25 05:01:18;;;;;;;44.00;27.67;;;10.00;99.90;;;;;;5111876;27;20400;-86
2023/05/25 05:03:44;;;;;;;29.60;19.33;;;10.20;99.90;;;;;;5128933;27;20495;-87
2023/05/25 05:06:10;;;;;;;35.83;23.58;;;10.30;99.90;;;;;;5128835;27;20512;-86
2023/05/25 05:08:35;;;;;;;30.23;21.65;;;10.30;99.90;;;;;;5129113;27;20393;-86
2023/05/25 05:11:01;;;;;;;35.03;23.37;;;10.40;99.90;;;;;;5129254;27;20960;-86
2023/05/25 05:13:27;;;;;;;39.63;24.00;;;10.60;99.90;;;;;;5147332;27;20724;-87
2023/05/25 05:15:52;;;;;;;36.33;23.70;;;10.60;99.90;;;;;;5147563;27;20397;-87
2023/05/25 05:18:19;;;;;;;37.27;22.10;;;10.50;99.90;;;;;;5147370;27;20397;-86
2023/05/25 05:20:45;;;;;;;37.78;23.65;;;10.60;99.90;;;;;;5128523;27;20408;-88
2023/05/25 05:23:11;;;;;;;37.42;23.55;;;10.80;99.90;;;;;;5147567;27;20381;-87
2023/05/25 05:25:36;;;;;;;34.77;23.07;;;10.90;99.90;;;;;;5128385;27;20580;-87
2023/05/25 05:28:02;;;;;;;33.38;21.88;;;11.00;99.90;;;;;;5111623;27;20856;-87
2023/05/25 05:30:28;;;;;;;37.90;23.38;;;11.20;99.90;;;;;;5111799;27;20958;-87
2023/05/25 05:32:54;;;;;;;37.08;22.80;;;11.30;99.90;;;;;;5111435;27;20697;-87
2023/05/25 05:35:20;;;;;;;32.00;19.95;;;11.40;99.90;;;;;;5128547;27;20478;-87
2023/05/25 05:37:47;;;;;;;32.83;20.52;;;11.50;99.90;;;;;;5128772;27;20415;-87
2023/05/25 05:40:13;;;;;;;27.90;19.23;;;11.70;99.90;;;;;;5133412;27;20426;-87
2023/05/25 05:42:39;;;;;;;33.03;19.57;;;11.80;99.90;;;;;;5153988;27;20862;-88
2023/05/25 05:45:05;;;;;;;30.13;19.17;;;11.90;99.90;;;;;;5135331;27;20511;-87
2023/05/25 05:47:31;;;;;;;28.93;17.00;;;12.00;99.90;;;;;;5135492;27;20392;-88
2023/05/25 05:49:56;;;;;;;27.80;16.90;;;12.40;99.90;;;;;;5118830;27;20600;-88
2023/05/25 05:52:22;;;;;;;26.23;16.70;;;12.20;99.90;;;;;;5135085;27;20393;-87
2023/05/25 05:54:47;;;;;;;29.83;17.23;;;12.30;99.90;;;;;;5135454;27;20401;-88
2023/05/25 05:57:13;;;;;;;30.98;16.23;;;12.60;99.90;;;;;;5118283;27;20748;-88
2023/05/25 05:59:39;;;;;;;25.47;15.83;;;12.50;99.90;;;;;;5118467;27;20911;-87
2023/05/25 06:02:06;;;;;;;25.23;14.88;;;12.70;99.90;;;;;;5135940;27;20461;-87
2023/05/25 06:04:32;;;;;;;24.45;14.82;;;12.80;99.90;;;;;;5118252;27;20429;-89
2023/05/25 06:06:57;;;;;;;23.80;14.55;;;12.90;99.90;;;;;;5118328;27;20401;-87
2023/05/25 06:09:25;;;;;;;27.03;14.87;;;12.90;99.90;;;;;;5118162;27;20393;-87
2023/05/25 06:11:51;;;;;;;22.73;13.02;;;13.20;99.90;;;;;;5118330;27;20476;-88
2023/05/25 06:14:16;;;;;;;21.63;12.00;;;13.30;99.90;;;;;;5135120;27;20879;-87
2023/05/25 06:16:42;;;;;;;22.33;11.93;;;13.30;99.90;;;;;;5118125;27;20381;-87
2023/05/25 06:19:08;;;;;;;19.45;10.70;;;13.40;99.90;;;;;;5135193;27;20751;-87
2023/05/25 06:21:34;;;;;;;15.80;8.40;;;13.60;99.90;;;;;;5135074;27;20778;-88
2023/05/25 06:23:59;;;;;;;14.37;5.43;;;13.90;99.90;;;;;;5117809;27;20393;-87
2023/05/25 06:26:26;;;;;;;15.63;5.65;;;13.80;99.90;;;;;;5118116;27;20460;-88
2023/05/25 06:28:51;;;;;;;14.18;4.90;;;14.00;99.90;;;;;;5118124;27;20389;-89
2023/05/25 06:31:17;;;;;;;14.20;4.50;;;14.30;99.90;;;;;;5117844;27;20974;-88
2023/05/25 06:33:43;;;;;;;15.63;4.90;;;14.20;99.90;;;;;;5135136;27;20415;-87
2023/05/25 06:36:09;;;;;;;13.25;4.68;;;14.30;99.90;;;;;;5117926;27;20422;-88
2023/05/25 06:38:35;;;;;;;15.53;4.60;;;14.40;99.90;;;;;;5117904;27;20471;-88
2023/05/25 06:41:03;;;;;;;13.48;4.57;;;14.50;99.90;;;;;;5118217;27;20958;-88
2023/05/25 06:43:30;;;;;;;14.60;5.05;;;14.70;99.90;;;;;;5135135;27;20400;-87
2023/05/25 06:45:56;;;;;;;17.48;4.90;;;14.80;99.90;;;;;;5117886;27;20775;-88
2023/05/25 06:48:22;;;;;;;16.15;4.47;;;14.90;99.90;;;;;;5117786;27;20393;-90
2023/05/25 06:50:47;;;;;;;14.73;4.57;;;14.90;99.90;;;;;;5116068;27;20989;-88
2023/05/25 06:53:13;;;;;;;17.43;5.30;;;15.10;99.90;;;;;;5131833;27;20389;-88
2023/05/25 06:55:39;;;;;;;13.98;4.28;;;15.00;99.90;;;;;;5114963;27;20407;-90
2023/05/25 06:58:04;;;;;;;14.47;4.90;;;15.10;99.90;;;;;;5114594;27;20414;-88
2023/05/25 07:00:30;;;;;;;14.23;4.30;;;15.10;99.90;;;;;;5114857;27;20966;-87
2023/05/25 07:02:56;;;;;;;14.73;4.57;;;15.10;99.90;;;;;;5114013;27;20401;-88
2023/05/25 07:05:21;;;;;;;13.50;3.78;;;15.20;99.90;;;;;;5114321;27;20425;-88
2023/05/25 07:07:47;;;;;;;13.23;3.80;;;15.20;99.90;;;;;;5114818;27;20816;-87
2023/05/25 07:10:13;;;;;;;14.02;4.15;;;15.50;99.90;;;;;;5114245;27;20849;-88
2023/05/25 07:12:38;;;;;;;14.13;4.13;;;15.10;99.90;;;;;;5114928;27;20417;-89
2023/05/25 07:15:05;;;;;;;15.48;4.47;;;15.20;99.90;;;;;;5131421;27;20456;-88
2023/05/25 07:17:31;;;;;;;17.10;3.97;;;15.10;99.90;;;;;;5114284;27;20393;-88
2023/05/25 07:19:56;;;;;;;17.87;4.20;;;15.10;99.90;;;;;;5114573;27;20401;-89
2023/05/25 07:22:22;;;;;;;17.23;4.50;;;15.40;99.90;;;;;;5114088;27;20381;-87
2023/05/25 07:24:48;;;;;;;15.77;4.30;;;15.40;99.90;;;;;;5113836;27;20500;-87
2023/05/25 07:27:14;;;;;;;16.60;4.37;;;15.50;99.90;;;;;;5114020;27;20432;-88
2023/05/25 07:29:40;;;;;;;16.90;4.25;;;15.70;99.90;;;;;;5131704;27;20752;-87
2023/05/25 07:32:06;;;;;;;16.42;4.10;;;16.00;99.90;;;;;;5130901;27;20397;-89
2023/05/25 07:34:35;;;;;;;17.63;4.22;;;15.90;99.90;;;;;;5130827;27;20385;-89
2023/05/25 07:37:00;;;;;;;18.33;4.50;;;15.90;99.90;;;;;;5113829;27;20404;-88
2023/05/25 07:39:26;;;;;;;15.45;4.43;;;16.10;99.90;;;;;;5114035;27;20446;-88
2023/05/25 07:41:52;;;;;;;20.05;4.30;;;16.20;99.90;;;;;;5114320;27;20959;-87
2023/05/25 07:44:17;;;;;;;18.87;3.90;;;16.00;99.90;;;;;;5114109;27;21063;-88
2023/05/25 07:46:43;;;;;;;16.63;4.10;;;16.20;99.90;;;;;;5113580;27;20501;-88
2023/05/25 07:49:15;;;;;;;15.00;4.10;;;16.30;99.90;;;;;;5113466;27;20389;-89
2023/05/25 07:51:44;;;;;;;16.75;3.90;;;16.70;99.90;;;;;;5114143;27;20500;-89
2023/05/25 07:54:10;;;;;;;15.90;3.88;;;16.90;99.90;;;;;;5113459;27;20775;-88
2023/05/25 07:56:36;;;;;;;16.58;4.20;;;17.40;99.90;;;;;;5113747;27;20822;-88
2023/05/25 07:59:02;;;;;;;15.32;3.83;;;17.00;99.90;;;;;;5113553;27;20497;-89
2023/05/25 08:01:28;;;;;;;16.02;3.75;;;16.70;98.00;;;;;;5113404;27;20503;-87
2023/05/25 08:03:54;;;;;;;18.00;4.57;;;16.50;99.90;;;;;;5113072;27;20397;-89
2023/05/25 08:06:20;;;;;;;17.13;3.95;;;16.50;99.90;;;;;;5113600;27;20427;-90
2023/05/25 08:08:45;;;;;;;18.50;3.88;;;16.80;99.90;;;;;;5113702;27;20393;-88
2023/05/25 08:11:11;;;;;;;16.80;4.07;;;17.30;99.90;;;;;;5113676;27;20393;-88
2023/05/25 08:13:37;;;;;;;15.60;4.10;;;17.40;97.90;;;;;;5113354;27;20921;-90
2023/05/25 08:16:03;;;;;;;16.23;3.83;;;17.60;99.90;;;;;;5113486;27;20397;-88
2023/05/25 08:18:30;;;;;;;17.90;4.28;;;17.70;99.70;;;;;;5112963;27;20455;-88
2023/05/25 08:20:56;;;;;;;16.75;4.50;;;17.90;97.40;;;;;;5113134;27;20389;-89
2023/05/25 08:23:22;;;;;;;17.30;3.97;;;18.20;99.90;;;;;;5113494;27;20448;-89
2023/05/25 08:25:48;;;;;;;19.80;4.50;;;18.40;97.40;;;;;;5112849;27;20425;-88
2023/05/25 08:28:13;;;;;;;18.50;3.83;;;18.50;96.70;;;;;;5112796;27;20787;-91
2023/05/25 08:30:39;;;;;;;18.30;3.73;;;18.30;82.00;;;;;;5113347;27;20446;-88
2023/05/25 08:33:06;;;;;;;14.57;3.80;;;18.20;91.20;;;;;;5112761;27;20397;-88
2023/05/25 08:35:31;;;;;;;21.77;4.27;;;18.00;83.60;;;;;;5112689;27;20396;-89
2023/05/25 08:37:57;;;;;;;19.38;4.18;;;17.70;76.10;;;;;;5113268;27;20396;-88
2023/05/25 08:40:27;;;;;;;18.20;3.72;;;17.70;81.80;;;;;;5112821;27;20456;-87
2023/05/25 08:42:52;;;;;;;19.73;3.90;;;17.80;89.80;;;;;;5129781;27;20385;-89
2023/05/25 08:45:18;;;;;;;17.05;4.57;;;17.80;78.70;;;;;;5112854;27;20428;-87
2023/05/25 08:47:47;;;;;;;17.57;4.40;;;17.80;84.00;;;;;;5113148;27;20961;-89
2023/05/25 08:50:15;;;;;;;17.58;3.70;;;17.40;75.10;;;;;;5112470;27;20400;-89
2023/05/25 08:52:44;;;;;;;16.23;3.80;;;17.40;87.80;;;;;;5112466;27;20404;-89
2023/05/25 08:55:11;;;;;;;20.70;4.20;;;17.60;84.00;;;;;;5112458;27;20395;-88
2023/05/25 08:57:54;;;;;;;16.67;3.42;;;17.40;72.30;;;;;;5129863;27;20490;-89
2023/05/25 09:00:31;;;;;;;17.35;4.05;;;17.50;84.30;;;;;;5112916;27;20530;-88
2023/05/25 09:03:10;;;;;;;13.70;3.40;;;17.80;76.00;;;;;;5112256;27;20704;-88
2023/05/25 09:05:36;;;;;;;20.17;4.20;;;18.00;82.90;;;;;;5129683;27;20420;-90
2023/05/25 09:08:05;;;;;;;15.45;3.67;;;18.10;82.30;;;;;;5112890;27;20400;-88
2023/05/25 09:10:36;;;;;;;17.30;4.15;;;18.20;69.60;;;;;;5112253;27;20401;-89
2023/05/25 09:13:03;;;;;;;17.63;3.97;;;18.00;70.40;;;;;;5112209;27;20423;-87
2023/05/25 09:15:29;;;;;;;13.57;3.30;;;17.70;82.40;;;;;;5111876;27;20428;-89
2023/05/25 09:17:54;;;;;;;16.92;3.70;;;17.60;70.40;;;;;;5112910;27;20421;-89
2023/05/25 09:20:20;;;;;;;15.25;3.78;;;17.60;88.90;;;;;;5112299;27;20862;-88
2023/05/25 09:22:49;;;;;;;17.30;3.50;;;17.90;77.60;;;;;;5129413;27;20409;-87
2023/05/25 09:25:19;;;;;;;17.90;4.10;;;18.30;74.70;;;;;;5111924;27;20757;-89
2023/05/25 09:27:45;;;;;;;15.27;3.55;;;18.40;71.20;;;;;;5112373;27;20897;-88
2023/05/25 09:30:11;;;;;;;16.77;3.63;;;18.60;69.20;;;;;;5129435;27;20408;-89
2023/05/25 09:32:37;;;;;;;18.38;4.07;;;18.60;60.30;;;;;;5112583;27;20418;-89
2023/05/25 09:35:13;;;;;;;17.67;3.50;;;18.90;66.70;;;;;;5111923;27;20887;-89
2023/05/25 09:37:43;;;;;;;15.63;3.15;;;18.90;62.80;;;;;;5112278;27;20511;-89
2023/05/25 09:40:12;;;;;;;14.27;3.53;;;19.10;60.70;;;;;;5111573;27;20413;-88
2023/05/25 09:42:38;;;;;;;15.70;3.20;;;19.30;61.10;;;;;;5112007;27;20400;-88
2023/05/25 09:45:04;;;;;;;14.30;3.55;;;19.40;56.90;;;;;;5129178;27;20420;-89
2023/05/25 09:47:30;;;;;;;15.40;3.63;;;18.70;56.70;;;;;;5111756;27;20396;-90
2023/05/25 09:49:57;;;;;;;15.50;4.00;;;18.30;61.50;;;;;;5112076;27;20389;-90
2023/05/25 09:52:23;;;;;;;17.15;4.05;;;18.30;69.20;;;;;;5112369;27;20737;-90
2023/05/25 09:54:50;;;;;;;17.17;3.70;;;18.50;66.10;;;;;;5111472;27;20492;-90
2023/05/25 09:57:17;;;;;;;15.02;3.70;;;18.70;61.90;;;;;;5112457;27;20393;-88
2023/05/25 09:59:44;;;;;;;16.30;3.70;;;18.80;58.40;;;;;;5112130;27;20393;-88
2023/05/25 10:02:10;;;;;;;15.05;3.90;;;19.10;62.80;;;;;;5112104;27;20513;-89
2023/05/25 10:04:36;;;;;;;17.80;4.25;;;19.10;60.40;;;;;;5128878;27;20918;-88
2023/05/25 10:07:03;;;;;;;18.23;4.35;;;19.20;60.20;;;;;;5111431;27;20421;-89
2023/05/25 10:09:29;;;;;;;17.92;4.13;;;18.80;61.70;;;;;;5111998;27;20388;-89
2023/05/25 10:12:00;;;;;;;19.67;4.45;;;18.80;61.30;;;;;;5111846;27;20385;-90
2023/05/25 10:14:26;;;;;;;18.50;4.15;;;18.90;72.10;;;;;;5112053;27;20396;-89
2023/05/25 10:16:58;;;;;;;19.95;4.60;;;19.30;72.30;;;;;;5112008;27;20415;-88
2023/05/25 10:19:47;;;;;;;16.35;4.35;;;19.40;61.00;;;;;;5111827;27;20400;-90
2023/05/25 10:22:28;;;;;;;18.42;4.45;;;19.70;58.60;;;;;;5110594;27;20408;-90
2023/05/25 10:25:13;;;;;;;16.50;3.75;;;20.00;58.20;;;;;;5128088;27;20509;-89
2023/05/25 10:27:47;;;;;;;18.33;4.15;;;20.10;51.90;;;;;;5114835;27;20405;-90
2023/05/25 10:30:13;;;;;;;15.80;4.37;;;20.50;54.90;;;;;;5115373;27;20389;-90
2023/05/25 10:32:41;;;;;;;15.00;3.83;;;20.70;52.60;;;;;;5132371;27;20428;-88
2023/05/25 10:35:08;;;;;;;18.23;4.43;;;20.70;52.00;;;;;;5115231;27;20484;-88
2023/05/25 10:37:34;;;;;;;19.20;4.20;;;20.60;50.90;;;;;;5115210;27;20393;-89
2023/05/25 10:40:01;;;;;;;20.35;4.65;;;20.40;52.00;;;;;;5132310;27;20400;-88
2023/05/25 10:42:27;;;;;;;18.45;4.35;;;20.30;50.70;;;;;;5115349;27;20431;-88
2023/05/25 10:44:53;;;;;;;16.87;3.93;;;20.20;51.20;;;;;;5115359;27;20455;-88
2023/05/25 10:47:19;;;;;;;17.27;4.10;;;20.20;54.40;;;;;;5114813;27;20441;-89
2023/05/25 10:49:56;;;;;;;18.48;4.10;;;20.60;55.30;;;;;;5114888;27;20392;-89
2023/05/25 10:52:31;;;;;;;17.20;3.77;;;20.90;51.70;;;;;;5115580;27;20397;-90
2023/05/25 10:55:08;;;;;;;16.55;3.97;;;20.90;52.30;;;;;;5115060;27;20397;-91
2023/05/25 10:57:34;;;;;;;17.02;4.15;;;20.90;50.60;;;;;;5114711;27;20401;-88
2023/05/25 11:00:05;;;;;;;16.83;3.97;;;20.90;49.80;;;;;;5114843;27;20401;-90
2023/05/25 11:02:54;;;;;;;16.83;4.10;;;21.30;50.90;;;;;;5114890;27;20507;-89
2023/05/25 11:05:26;;;;;;;16.17;3.80;;;21.20;50.10;;;;;;5114514;27;20445;-90
2023/05/25 11:07:53;;;;;;;16.13;4.13;;;21.30;48.40;;;;;;5114718;27;20483;-89
2023/05/25 11:10:47;;;;;;;15.07;3.63;;;21.00;48.30;;;;;;5114456;27;20743;-89
2023/05/25 11:13:29;;;;;;;17.23;4.10;;;20.90;52.00;;;;;;5114739;27;20662;-89
2023/05/25 11:16:26;;;;;;;17.77;4.15;;;21.00;50.80;;;;;;5114851;27;20397;-90
2023/05/25 11:18:57;;;;;;;17.38;4.05;;;21.20;51.10;;;;;;5114481;27;20453;-89
2023/05/25 11:21:26;;;;;;;16.60;4.05;;;21.60;51.60;;;;;;5113978;27;20413;-90
2023/05/25 11:23:57;;;;;;;15.38;3.70;;;21.90;49.70;;;;;;5114267;27;20448;-90
2023/05/25 11:26:33;;;;;;;18.38;4.40;;;21.40;49.70;;;;;;5114253;27;20424;-87
2023/05/25 11:29:14;;;;;;;16.73;4.05;;;21.20;48.30;;;;;;5113577;27;20428;-89
2023/05/25 11:31:40;;;;;;;15.43;3.63;;;21.00;49.90;;;;;;5113967;27;20774;-89
2023/05/25 11:34:06;;;;;;;17.20;3.45;;;21.20;51.70;;;;;;5114022;27;20392;-89
2023/05/25 11:36:34;;;;;;;16.00;3.60;;;21.60;50.30;;;;;;5131097;27;20895;-88
2023/05/25 11:39:02;;;;;;;15.63;3.90;;;21.90;49.20;;;;;;5130803;27;20393;-89
2023/05/25 11:41:28;;;;;;;15.38;3.75;;;21.70;48.90;;;;;;5113992;27;20401;-90
2023/05/25 11:43:55;;;;;;;17.10;3.90;;;21.60;47.70;;;;;;5131635;27;20453;-88
2023/05/25 11:46:21;;;;;;;18.08;4.22;;;21.40;47.60;;;;;;5113908;27;20783;-89
2023/05/25 11:48:51;;;;;;;15.77;4.00;;;20.90;49.30;;;;;;5113640;27;20405;-88
2023/05/25 11:51:22;;;;;;;18.20;4.00;;;20.60;50.30;;;;;;5131066;27;20450;-89
2023/05/25 11:53:48;;;;;;;16.73;4.00;;;20.50;51.90;;;;;;5113785;27;20397;-89
2023/05/25 11:56:14;;;;;;;16.48;3.78;;;20.80;49.60;;;;;;5113355;27;20449;-91
2023/05/25 11:58:43;;;;;;;15.15;3.72;;;21.30;52.00;;;;;;5114244;27;20405;-90
2023/05/25 12:01:22;;;;;;;15.73;3.65;;;21.70;49.00;;;;;;5113851;27;20444;-89
2023/05/25 12:03:54;;;;;;;17.30;3.97;;;21.70;48.00;;;;;;5113878;27;20397;-89
2023/05/25 12:06:32;;;;;;;15.87;4.03;;;21.80;49.80;;;;;;5113458;27;20447;-89
2023/05/25 12:09:00;;;;;;;18.50;4.20;;;21.60;47.30;;;;;;5113510;27;20492;-89
2023/05/25 12:11:38;;;;;;;17.77;4.18;;;21.40;52.20;;;;;;5130857;27;20473;-90
2023/05/25 12:14:05;;;;;;;16.00;3.90;;;21.50;51.00;;;;;;5113582;27;20496;-88
2023/05/25 12:16:33;;;;;;;14.67;3.80;;;21.80;48.60;;;;;;5130311;27;20404;-90
2023/05/25 12:19:00;;;;;;;16.48;4.10;;;22.00;47.50;;;;;;5113248;27;20412;-89
2023/05/25 12:21:27;;;;;;;16.35;4.22;;;22.10;47.80;;;;;;5130723;27;20420;-90
2023/05/25 12:23:53;;;;;;;18.15;4.15;;;22.10;45.50;;;;;;5113477;27;20397;-89
2023/05/25 12:26:20;;;;;;;18.02;3.97;;;21.90;47.40;;;;;;5113124;27;20463;-90
2023/05/25 12:29:01;;;;;;;17.85;4.43;;;21.60;46.60;;;;;;5113523;27;20420;-89
2023/05/25 12:31:32;;;;;;;18.30;4.68;;;21.70;46.50;;;;;;5113309;27;20409;-88
2023/05/25 12:34:08;;;;;;;15.05;3.90;;;22.00;50.60;;;;;;5113183;27;20405;-89
2023/05/25 12:36:38;;;;;;;18.23;4.47;;;22.10;48.20;;;;;;5113341;27;20767;-90
2023/05/25 12:39:05;;;;;;;17.37;4.50;;;22.10;47.30;;;;;;5113354;27;20412;-90
2023/05/25 12:41:31;;;;;;;17.25;4.50;;;21.70;48.10;;;;;;5113305;27;20954;-89